Time;durP1;ratioP1;P1;durP2;ratioP2;P2;SDS_P1;SDS_P2;PMS_P1;PMS_P2;Temp;Humidity;BMP_temperature;BMP_pressure;BME280_temperature;BME280_humidity;BME280_pressure;Samples;Min_cycle;Max_cycle;Signal;HPM_P1;HPM_P2
2023/07/11 00:00:14;;;;;;;8.30;5.68;;;;;;;21.26;80.30;100528.66;5019373;28;20408;-66
2023/07/11 00:02:44;;;;;;;10.38;5.40;;;;;;;21.59;80.52;100557.34;5029901;28;20022;-68
2023/07/11 00:05:12;;;;;;;9.00;5.38;;;;;;;21.71;79.38;100533.59;5030081;28;20395;-67
2023/07/11 00:07:37;;;;;;;8.23;5.20;;;;;;;22.01;77.92;100543.84;5029186;28;20025;-65
2023/07/11 00:10:03;;;;;;;6.68;5.43;;;;;;;22.05;78.08;100554.34;5030008;28;20026;-68
2023/07/11 00:12:28;;;;;;;8.80;6.15;;;;;;;22.14;77.67;100554.25;5029365;28;20044;-68
2023/07/11 00:14:56;;;;;;;11.88;5.65;;;;;;;22.17;77.37;100552.47;5033590;28;20457;-66
2023/07/11 00:17:21;;;;;;;9.23;5.60;;;;;;;22.25;76.89;100542.75;5035247;28;20128;-68
2023/07/11 00:19:52;;;;;;;7.72;5.20;;;;;;;22.14;75.92;100512.19;5042461;28;20030;-66
2023/07/11 00:22:18;;;;;;;7.10;5.63;;;;;;;22.46;75.50;100553.06;5034285;28;20133;-68
2023/07/11 00:24:44;;;;;;;8.00;5.50;;;;;;;22.48;75.40;100544.31;5033639;28;20021;-65
2023/07/11 00:27:11;;;;;;;7.68;5.90;;;;;;;22.51;75.50;100550.41;5033928;28;20420;-64
2023/07/11 00:29:37;;;;;;;6.65;5.70;;;;;;;22.51;76.30;100554.81;5032278;28;20033;-68
2023/07/11 00:32:04;;;;;;;7.20;6.03;;;;;;;22.27;78.75;100548.88;5033368;28;20026;-66
2023/07/11 00:34:29;;;;;;;8.20;6.60;;;;;;;21.95;80.89;100550.06;5031810;28;20499;-68
2023/07/11 00:36:55;;;;;;;7.00;6.18;;;;;;;21.69;82.31;100550.28;5032049;28;20032;-68
2023/07/11 00:39:20;;;;;;;7.50;6.25;;;;;;;21.56;83.18;100550.38;5033513;28;20030;-69
2023/07/11 00:41:46;;;;;;;8.52;5.70;;;;;;;21.60;83.61;100552.06;5033421;28;20489;-69
2023/07/11 00:44:13;;;;;;;8.60;6.45;;;;;;;21.73;83.30;100546.72;5033260;28;20111;-66
2023/07/11 00:46:40;;;;;;;8.50;6.40;;;;;;;21.78;82.83;100537.03;5033181;28;20025;-66
2023/07/11 00:49:08;;;;;;;8.80;5.97;;;;;;;21.93;81.70;100551.81;5033223;28;20025;-66
2023/07/11 00:51:39;;;;;;;7.32;6.13;;;;;;;21.55;82.45;100516.19;5033038;28;20100;-69
2023/07/11 00:54:09;;;;;;;8.57;6.32;;;;;;;21.39;83.67;100533.81;5032956;28;20026;-69
2023/07/11 00:56:39;;;;;;;11.98;6.43;;;;;;;21.24;84.42;100542.66;5020644;28;20057;-65
2023/07/11 00:59:05;;;;;;;12.95;6.68;;;;;;;21.01;84.98;100541.91;5032834;28;20084;-70
2023/07/11 01:01:31;;;;;;;9.15;6.53;;;;;;;20.99;85.25;100553.28;5032992;28;20056;-66
2023/07/11 01:03:57;;;;;;;8.85;6.43;;;;;;;20.93;85.14;100550.69;5032419;28;20040;-66
2023/07/11 01:06:26;;;;;;;9.07;7.20;;;;;;;20.88;85.33;100548.06;5032914;28;20041;-69
2023/07/11 01:08:54;;;;;;;10.18;6.60;;;;;;;20.69;85.69;100510.53;5031662;28;20061;-68
2023/07/11 01:11:22;;;;;;;9.60;6.50;;;;;;;20.83;85.54;100528.88;5032957;28;20033;-69
2023/07/11 01:13:48;;;;;;;9.35;6.28;;;;;;;20.87;85.69;100537.59;5032472;28;20565;-69
2023/07/11 01:16:14;;;;;;;9.85;6.70;;;;;;;20.94;85.58;100540.19;5036076;28;20109;-66
2023/07/11 01:18:40;;;;;;;10.77;6.68;;;;;;;20.96;85.35;100527.03;5053115;28;20021;-71
2023/07/11 01:21:06;;;;;;;10.32;6.50;;;;;;;20.98;85.11;100538.41;5053086;28;20037;-68
2023/07/11 01:23:33;;;;;;;8.57;6.40;;;;;;;20.95;85.07;100538.44;5032295;28;20029;-66
2023/07/11 01:26:05;;;;;;;9.43;6.20;;;;;;;20.83;85.33;100541.97;5031651;28;20175;-66
2023/07/11 01:28:31;;;;;;;9.80;6.50;;;;;;;20.59;85.13;100486.09;5032855;28;20033;-68
2023/07/11 01:30:56;;;;;;;11.85;6.45;;;;;;;20.71;84.93;100506.19;5032598;28;20094;-65
2023/07/11 01:33:24;;;;;;;10.18;6.20;;;;;;;20.85;84.79;100537.63;5032907;28;20035;-66
2023/07/11 01:35:54;;;;;;;9.73;6.43;;;;;;;20.76;84.46;100527.13;5032818;28;20028;-71
2023/07/11 01:38:21;;;;;;;11.13;6.18;;;;;;;20.85;84.76;100535.00;5032849;28;20037;-70
2023/07/11 01:40:47;;;;;;;7.72;6.07;;;;;;;20.88;84.20;100528.84;5032609;28;20212;-70
2023/07/11 01:43:15;;;;;;;9.35;6.30;;;;;;;20.72;84.28;100488.69;5032813;28;20021;-70
2023/07/11 01:45:41;;;;;;;8.30;6.50;;;;;;;20.91;84.08;100519.22;5032716;28;20025;-68
2023/07/11 01:48:06;;;;;;;11.18;6.95;;;;;;;20.98;83.45;100525.28;5032655;28;20395;-65
2023/07/11 01:50:32;;;;;;;8.60;5.95;;;;;;;21.02;82.99;100524.38;5032669;28;20131;-65
2023/07/11 01:52:58;;;;;;;10.63;6.57;;;;;;;20.80;83.21;100500.88;5032481;28;20492;-66
2023/07/11 01:55:23;;;;;;;6.90;5.65;;;;;;;20.67;83.20;100488.66;5032802;28;20403;-72
2023/07/11 01:57:49;;;;;;;10.65;6.55;;;;;;;20.81;82.81;100523.63;5032131;28;20172;-65
2023/07/11 02:00:15;;;;;;;9.25;5.85;;;;;;;20.92;82.50;100535.81;5032560;28;20151;-68
2023/07/11 02:02:40;;;;;;;8.98;5.70;;;;;;;20.90;82.50;100537.56;5032136;28;20125;-72
2023/07/11 02:05:06;;;;;;;8.48;6.10;;;;;;;20.86;82.71;100526.25;5032413;28;20036;-71
2023/07/11 02:07:31;;;;;;;8.75;5.75;;;;;;;20.79;81.85;100504.38;5029747;28;20042;-70
2023/07/11 02:09:57;;;;;;;8.45;5.40;;;;;;;20.98;81.11;100541.91;5032291;28;20587;-66
2023/07/11 02:12:22;;;;;;;9.95;5.72;;;;;;;20.88;81.50;100526.22;5032046;28;20029;-69
2023/07/11 02:14:47;;;;;;;8.18;5.85;;;;;;;20.68;81.16;100495.66;5032228;28;20025;-69
2023/07/11 02:17:14;;;;;;;7.13;6.07;;;;;;;20.80;81.13;100526.28;5032167;28;20040;-66
2023/07/11 02:19:41;;;;;;;6.45;5.40;;;;;;;20.75;81.42;100528.00;5032127;28;20022;-70
2023/07/11 02:22:08;;;;;;;11.70;5.68;;;;;;;20.84;81.63;100534.09;5031999;28;20037;-71
2023/07/11 02:24:33;;;;;;;12.68;5.90;;;;;;;20.94;80.54;100534.06;5031948;28;20029;-66
2023/07/11 02:26:59;;;;;;;8.95;5.30;;;;;;;20.96;80.38;100530.56;5031626;28;20411;-70
2023/07/11 02:29:24;;;;;;;9.15;5.43;;;;;;;20.98;80.14;100531.41;5043612;28;20501;-70
2023/07/11 02:31:50;;;;;;;7.93;5.32;;;;;;;21.07;80.09;100532.25;5051815;28;20028;-67
2023/07/11 02:34:16;;;;;;;7.53;5.60;;;;;;;20.96;80.07;100527.94;5051440;28;20025;-67
2023/07/11 02:36:41;;;;;;;6.45;5.22;;;;;;;20.95;79.34;100510.44;5051279;28;20483;-66
2023/07/11 02:39:06;;;;;;;11.30;5.45;;;;;;;21.08;79.65;100528.75;5049487;28;20128;-67
2023/07/11 02:41:32;;;;;;;8.63;5.47;;;;;;;21.05;78.97;100516.50;5051411;28;20415;-70
2023/07/11 02:43:58;;;;;;;6.43;4.75;;;;;;;21.08;76.90;100526.13;5051565;28;20029;-67
2023/07/11 02:46:24;;;;;;;6.78;5.18;;;;;;;21.13;77.66;100530.47;5051354;28;20025;-71
2023/07/11 02:48:50;;;;;;;9.68;5.35;;;;;;;21.11;76.84;100532.22;5051443;28;20495;-70
2023/07/11 02:51:15;;;;;;;7.65;5.18;;;;;;;20.89;77.80;100517.47;5051269;28;20396;-67
2023/07/11 02:53:41;;;;;;;8.68;4.90;;;;;;;20.90;78.28;100516.56;5051097;28;20047;-69
2023/07/11 02:56:06;;;;;;;6.35;4.38;;;;;;;20.94;76.63;100515.69;5051364;28;20033;-69
2023/07/11 02:58:32;;;;;;;7.97;4.93;;;;;;;20.82;77.52;100522.75;5049589;28;20484;-70
2023/07/11 03:01:00;;;;;;;9.32;4.80;;;;;;;20.62;77.05;100496.59;5051318;28;20032;-67
2023/07/11 03:03:25;;;;;;;10.38;6.55;;;;;;;20.84;77.03;100528.84;5051337;28;20036;-70
2023/07/11 03:05:52;;;;;;;12.20;5.63;;;;;;;20.90;76.76;100532.31;5051164;28;20089;-70
2023/07/11 03:08:18;;;;;;;7.88;5.38;;;;;;;20.79;77.73;100504.38;5051103;28;20025;-66
2023/07/11 03:10:44;;;;;;;5.80;4.60;;;;;;;21.07;79.04;100542.75;5050710;28;20082;-67
2023/07/11 03:13:10;;;;;;;8.32;5.40;;;;;;;20.94;80.24;100539.31;5050764;28;20476;-69
2023/07/11 03:15:37;;;;;;;7.38;5.32;;;;;;;20.68;81.71;100529.78;5050767;28;20050;-69
2023/07/11 03:18:02;;;;;;;6.40;4.97;;;;;;;20.26;81.88;100487.06;5050886;28;20028;-66
2023/07/11 03:20:28;;;;;;;8.75;5.18;;;;;;;20.43;82.93;100532.47;5050759;28;20017;-65
2023/07/11 03:22:54;;;;;;;7.55;5.22;;;;;;;20.36;83.07;100525.50;5035683;28;20053;-69
2023/07/11 03:25:20;;;;;;;7.40;5.53;;;;;;;20.20;83.00;100528.16;5030431;28;20029;-69
2023/07/11 03:27:45;;;;;;;6.55;5.10;;;;;;;20.19;83.80;100528.16;5030775;28;20559;-70
2023/07/11 03:30:11;;;;;;;8.60;5.25;;;;;;;20.32;83.14;100535.09;5031180;28;20062;-69
2023/07/11 03:32:36;;;;;;;7.13;5.40;;;;;;;20.34;83.14;100535.97;5030832;28;20025;-67
2023/07/11 03:35:02;;;;;;;8.07;4.90;;;;;;;20.45;82.64;100535.97;5030383;28;20025;-68
2023/07/11 03:37:28;;;;;;;7.80;5.72;;;;;;;20.56;82.23;100532.44;5030610;28;20037;-66
2023/07/11 03:39:53;;;;;;;10.98;5.22;;;;;;;20.65;80.69;100535.03;5030234;28;20544;-69
2023/07/11 03:42:19;;;;;;;9.15;5.38;;;;;;;20.72;79.54;100528.03;5030770;28;20033;-68
2023/07/11 03:44:45;;;;;;;8.02;4.90;;;;;;;20.85;79.43;100543.72;5030472;28;20029;-68
2023/07/11 03:47:10;;;;;;;5.82;4.72;;;;;;;20.76;79.20;100501.78;5030567;28;20108;-67
2023/07/11 03:49:36;;;;;;;7.43;4.97;;;;;;;21.11;76.93;100547.09;5028540;28;20032;-67
2023/07/11 03:52:01;;;;;;;8.00;5.10;;;;;;;21.11;76.61;100537.47;5030278;28;20133;-66
2023/07/11 03:54:27;;;;;;;7.97;4.80;;;;;;;21.22;76.19;100549.66;5030263;28;20107;-69
2023/07/11 03:56:53;;;;;;;9.75;4.78;;;;;;;21.05;76.40;100516.50;5030582;28;20037;-67
2023/07/11 03:59:19;;;;;;;6.65;4.88;;;;;;;21.43;75.73;100552.19;5030155;28;20479;-69
2023/07/11 04:01:47;;;;;;;9.02;5.20;;;;;;;21.53;75.20;100555.59;5030169;28;20419;-67
2023/07/11 04:04:12;;;;;;;6.68;4.82;;;;;;;21.61;75.96;100561.69;5030217;28;20037;-71
2023/07/11 04:06:38;;;;;;;5.78;4.97;;;;;;;21.34;76.82;100513.69;5030177;28;20029;-66
2023/07/11 04:09:03;;;;;;;11.82;5.28;;;;;;;21.54;76.96;100557.34;5030098;28;20402;-69
2023/07/11 04:11:29;;;;;;;10.25;5.50;;;;;;;21.44;78.38;100555.66;5030165;28;20411;-71
2023/07/11 04:13:55;;;;;;;8.80;5.72;;;;;;;21.49;79.22;100561.75;5030193;28;20030;-69
2023/07/11 04:16:20;;;;;;;7.88;5.68;;;;;;;21.42;79.97;100558.31;5030280;28;20025;-66
2023/07/11 04:18:46;;;;;;;9.80;5.25;;;;;;;21.49;78.48;100574.88;5029933;28;20477;-67
2023/07/11 04:21:11;;;;;;;10.02;5.80;;;;;;;21.34;76.39;100528.59;5029959;28;20025;-70
2023/07/11 04:23:37;;;;;;;7.72;5.25;;;;;;;21.61;75.90;100563.47;5029770;28;20033;-72
2023/07/11 04:26:02;;;;;;;10.05;5.30;;;;;;;21.66;76.86;100566.94;5030254;28;20022;-67
2023/07/11 04:28:28;;;;;;;8.20;5.45;;;;;;;21.53;78.20;100568.72;5029891;28;20443;-67
2023/07/11 04:30:53;;;;;;;15.27;5.72;;;;;;;21.40;77.37;100548.69;5030011;28;20559;-65
2023/07/11 04:33:18;;;;;;;12.85;5.82;;;;;;;21.38;77.60;100560.97;5029951;28;20423;-68
2023/07/11 04:35:44;;;;;;;9.95;5.72;;;;;;;21.40;78.33;100572.34;5030017;28;20429;-69
2023/07/11 04:38:10;;;;;;;11.63;5.25;;;;;;;21.38;78.67;100577.56;5029631;28;20033;-71
2023/07/11 04:40:36;;;;;;;19.00;5.75;;;;;;;21.27;78.41;100547.88;5030337;28;20116;-69
2023/07/11 04:43:01;;;;;;;7.88;5.28;;;;;;;21.13;79.19;100524.34;5029867;28;20506;-66
2023/07/11 04:45:27;;;;;;;17.52;6.35;;;;;;;21.32;79.38;100552.25;5029641;28;20475;-69
2023/07/11 04:47:53;;;;;;;7.55;5.40;;;;;;;21.53;79.11;100570.50;5029986;28;20041;-67
2023/07/11 04:50:18;;;;;;;12.70;5.88;;;;;;;21.51;77.28;100557.38;5029872;28;20391;-69
2023/07/11 04:52:44;;;;;;;11.30;5.05;;;;;;;21.55;77.31;100571.38;5029674;28;20032;-66
2023/07/11 04:55:10;;;;;;;13.82;6.03;;;;;;;21.64;77.88;100563.44;5029425;28;20029;-65
2023/07/11 04:57:35;;;;;;;10.90;5.60;;;;;;;21.72;77.88;100566.00;5029737;28;20049;-67
2023/07/11 05:00:01;;;;;;;11.15;5.53;;;;;;;21.60;76.29;100528.44;5031656;28;20029;-70
2023/07/11 05:02:26;;;;;;;9.35;5.50;;;;;;;21.79;76.64;100549.31;5033459;28;20052;-69
2023/07/11 05:04:52;;;;;;;13.00;5.68;;;;;;;21.95;75.70;100573.72;5033319;28;20018;-69
2023/07/11 05:07:17;;;;;;;14.80;5.75;;;;;;;22.06;76.63;100571.00;5033266;28;20411;-69
2023/07/11 05:09:43;;;;;;;17.20;5.85;;;;;;;21.86;76.41;100523.84;5033098;28;20025;-66
2023/07/11 05:12:10;;;;;;;20.30;5.90;;;;;;;22.29;75.18;100570.75;5033167;28;20051;-69
2023/07/11 05:14:36;;;;;;;10.77;5.45;;;;;;;22.40;73.85;100566.28;5033042;28;20475;-69
2023/07/11 05:17:01;;;;;;;11.35;5.32;;;;;;;22.54;73.32;100566.16;5031798;28;20033;-69
2023/07/11 05:19:27;;;;;;;9.63;5.22;;;;;;;22.65;73.63;100571.28;5033009;28;20052;-69
2023/07/11 05:21:52;;;;;;;11.57;5.57;;;;;;;22.75;72.41;100566.78;5031702;28;20391;-68
2023/07/11 05:24:18;;;;;;;6.28;5.00;;;;;;;22.82;72.14;100570.22;5033071;28;20175;-66
2023/07/11 05:26:43;;;;;;;6.93;5.35;;;;;;;22.87;71.85;100550.00;5033243;28;20036;-67
2023/07/11 05:29:08;;;;;;;7.63;6.18;;;;;;;23.03;72.02;100563.81;5033158;28;20030;-69
2023/07/11 05:31:34;;;;;;;7.95;6.25;;;;;;;23.17;72.03;100559.28;5032864;28;20111;-69
2023/07/11 05:33:59;;;;;;;8.20;5.68;;;;;;;23.05;72.18;100520.78;5032699;28;20472;-69
2023/07/11 05:36:33;;;;;;;7.10;5.18;;;;;;;23.41;72.62;100568.59;5032715;28;20028;-66
2023/07/11 05:39:02;;;;;;;10.93;5.60;;;;;;;23.32;71.14;100529.22;5032846;28;20447;-69
2023/07/11 05:41:29;;;;;;;8.35;4.90;;;;;;;23.67;70.51;100567.31;5032865;28;20548;-67
2023/07/11 05:43:55;;;;;;;11.20;5.38;;;;;;;23.75;69.39;100568.06;5032765;28;20028;-71
2023/07/11 05:46:22;;;;;;;7.47;5.40;;;;;;;23.65;69.34;100550.69;5032472;28;20029;-66
2023/07/11 05:48:48;;;;;;;8.20;5.10;;;;;;;23.80;69.78;100568.00;5032280;28;20041;-66
2023/07/11 05:51:15;;;;;;;7.85;5.50;;;;;;;23.73;70.08;100575.13;5032542;28;20029;-69
2023/07/11 05:53:41;;;;;;;8.45;5.55;;;;;;;23.72;70.41;100578.66;5032677;28;20076;-68
2023/07/11 05:56:06;;;;;;;7.55;5.47;;;;;;;23.62;70.43;100566.53;5039137;28;20045;-68
2023/07/11 05:58:33;;;;;;;9.05;5.57;;;;;;;23.74;69.82;100578.66;5052516;28;20083;-69
2023/07/11 06:00:59;;;;;;;7.70;5.60;;;;;;;23.73;70.06;100567.22;5052185;28;20508;-70
2023/07/11 06:03:27;;;;;;;8.40;5.55;;;;;;;23.77;71.05;100575.09;5050215;28;20128;-68
2023/07/11 06:05:53;;;;;;;6.97;5.45;;;;;;;23.75;69.55;100568.06;5049866;28;20052;-70
2023/07/11 06:08:19;;;;;;;8.25;5.72;;;;;;;23.68;68.78;100553.25;5032587;28;20031;-66
2023/07/11 06:10:45;;;;;;;11.02;5.22;;;;;;;23.70;69.84;100559.38;5031709;28;20029;-67
2023/07/11 06:13:11;;;;;;;7.07;5.40;;;;;;;23.74;70.38;100563.69;5031875;28;20040;-66
2023/07/11 06:15:37;;;;;;;10.20;5.22;;;;;;;23.77;70.13;100564.53;5031973;28;20472;-66
2023/07/11 06:18:03;;;;;;;7.72;5.25;;;;;;;23.78;70.28;100567.16;5032025;28;20061;-69
2023/07/11 06:20:29;;;;;;;10.45;5.60;;;;;;;23.79;70.91;100561.00;5031871;28;20060;-68
2023/07/11 06:22:54;;;;;;;8.18;5.20;;;;;;;23.86;70.73;100560.00;5031837;28;20045;-68
2023/07/11 06:25:20;;;;;;;10.68;5.88;;;;;;;23.97;71.58;100559.81;5031870;28;20087;-67
2023/07/11 06:27:46;;;;;;;12.07;5.15;;;;;;;24.09;70.95;100557.88;5031827;28;20029;-69
2023/07/11 06:30:12;;;;;;;10.02;5.90;;;;;;;24.21;71.96;100562.94;5031956;28;20040;-69
2023/07/11 06:32:37;;;;;;;10.35;5.43;;;;;;;24.33;72.14;100560.06;5030336;28;20030;-67
2023/07/11 06:35:03;;;;;;;6.82;5.13;;;;;;;24.36;71.05;100533.63;5031145;28;20039;-70
2023/07/11 06:37:28;;;;;;;10.63;5.38;;;;;;;24.51;69.65;100536.84;5029492;28;20053;-66
2023/07/11 06:39:54;;;;;;;9.93;5.45;;;;;;;24.84;68.57;100558.25;5031743;28;20651;-70
2023/07/11 06:42:19;;;;;;;7.57;5.47;;;;;;;24.99;68.72;100552.63;5031542;28;20051;-68
2023/07/11 06:44:44;;;;;;;7.90;5.72;;;;;;;25.25;65.28;100556.47;5031412;28;20026;-67
2023/07/11 06:47:10;;;;;;;8.13;5.30;;;;;;;25.37;66.19;100557.97;5030218;28;20031;-70
2023/07/11 06:49:35;;;;;;;9.32;5.80;;;;;;;25.45;64.95;100563.09;5029000;28;20038;-69
2023/07/11 06:52:02;;;;;;;7.18;5.65;;;;;;;25.45;64.73;100560.47;5031346;28;20112;-68
2023/07/11 06:54:28;;;;;;;7.22;5.00;;;;;;;25.47;63.75;100553.34;5031199;28;20037;-69
2023/07/11 06:56:54;;;;;;;12.65;5.97;;;;;;;25.62;65.62;100545.06;5031393;28;20036;-70
2023/07/11 06:59:21;;;;;;;9.63;4.75;;;;;;;25.95;61.43;100554.84;5031179;28;20049;-67
2023/07/11 07:01:47;;;;;;;10.23;5.55;;;;;;;26.08;58.66;100553.66;5031319;28;20117;-69
2023/07/11 07:04:13;;;;;;;8.30;4.95;;;;;;;26.00;58.91;100507.97;5029729;28;20484;-66
2023/07/11 07:06:40;;;;;;;8.07;5.30;;;;;;;26.28;62.04;100544.28;5031022;28;20546;-72
2023/07/11 07:09:06;;;;;;;9.18;5.55;;;;;;;26.32;57.94;100536.22;5030814;28;20384;-70
2023/07/11 07:11:32;;;;;;;10.18;5.63;;;;;;;26.42;61.90;100536.00;5031151;28;20045;-68
2023/07/11 07:13:57;;;;;;;8.02;4.85;;;;;;;26.53;60.84;100544.50;5030754;28;20110;-65
2023/07/11 07:16:23;;;;;;;7.90;4.97;;;;;;;26.72;58.70;100546.63;5030941;28;20110;-66
2023/07/11 07:18:48;;;;;;;9.13;5.10;;;;;;;26.80;58.69;100547.28;5030778;28;20396;-68
2023/07/11 07:21:13;;;;;;;6.85;4.93;;;;;;;26.90;57.93;100545.22;5031102;28;20026;-65
2023/07/11 07:23:39;;;;;;;7.18;5.28;;;;;;;26.58;56.37;100483.44;5030009;28;20430;-69
2023/07/11 07:26:05;;;;;;;8.98;5.18;;;;;;;26.91;58.23;100531.06;5030792;28;20381;-68
2023/07/11 07:28:32;;;;;;;6.38;4.95;;;;;;;27.14;56.73;100556.84;5030731;28;20029;-69
2023/07/11 07:30:59;;;;;;;6.95;5.22;;;;;;;27.21;56.45;100552.25;5030246;28;20025;-65
2023/07/11 07:33:26;;;;;;;9.65;5.13;;;;;;;27.34;57.36;100547.41;5030552;28;20028;-65
2023/07/11 07:35:57;;;;;;;9.57;5.05;;;;;;;27.47;56.53;100553.25;5030933;28;20030;-68
2023/07/11 07:38:22;;;;;;;9.68;5.30;;;;;;;27.48;58.86;100547.88;5030598;28;20041;-68
2023/07/11 07:40:51;;;;;;;11.18;5.40;;;;;;;27.56;58.81;100542.34;5030641;28;20030;-65
2023/07/11 07:43:17;;;;;;;7.13;4.55;;;;;;;27.71;55.15;100544.47;5030483;28;20044;-69
2023/07/11 07:45:42;;;;;;;7.50;5.15;;;;;;;27.86;54.38;100535.13;5026379;28;20041;-70
2023/07/11 07:48:08;;;;;;;10.93;5.15;;;;;;;27.98;54.65;100533.84;5026029;28;20045;-66
2023/07/11 07:50:33;;;;;;;9.48;5.03;;;;;;;28.03;51.60;100539.00;5030578;28;20025;-69
2023/07/11 07:52:58;;;;;;;7.93;5.10;;;;;;;27.82;53.27;100537.94;5029046;28;20033;-72
2023/07/11 07:55:24;;;;;;;7.70;4.93;;;;;;;27.54;54.39;100499.97;5020851;28;20033;-69
2023/07/11 07:57:49;;;;;;;8.32;4.85;;;;;;;27.85;52.75;100537.84;5020676;28;20140;-66
2023/07/11 08:00:15;;;;;;;10.63;5.70;;;;;;;27.97;58.03;100532.09;5030192;28;20112;-67
2023/07/11 08:02:42;;;;;;;7.65;5.38;;;;;;;28.12;54.01;100522.78;5022864;28;20033;-68
2023/07/11 08:05:08;;;;;;;8.07;5.30;;;;;;;28.21;51.55;100518.94;5030444;28;20026;-67
2023/07/11 08:07:34;;;;;;;5.55;4.90;;;;;;;28.45;52.71;100521.59;5030076;28;20103;-70
2023/07/11 08:10:00;;;;;;;8.07;5.38;;;;;;;28.52;54.39;100518.66;5030070;28;20032;-68
2023/07/11 08:12:25;;;;;;;9.07;4.80;;;;;;;28.50;52.69;100517.00;5030147;28;20460;-68
2023/07/11 08:14:51;;;;;;;6.85;4.85;;;;;;;28.62;51.32;100513.03;5029522;28;20472;-67
2023/07/11 08:17:16;;;;;;;10.40;5.18;;;;;;;28.67;55.11;100511.06;5028814;28;20112;-66
2023/07/11 08:19:42;;;;;;;9.07;4.85;;;;;;;28.65;51.41;100488.97;5030187;28;20585;-67
2023/07/11 08:22:07;;;;;;;6.10;4.88;;;;;;;28.88;50.55;100514.72;5030462;28;20033;-69
2023/07/11 08:24:33;;;;;;;8.82;5.10;;;;;;;29.01;51.44;100521.28;5029924;28;20062;-68
2023/07/11 08:26:58;;;;;;;8.85;5.32;;;;;;;28.99;54.15;100495.69;5019938;28;20041;-69
2023/07/11 08:29:24;;;;;;;12.57;4.97;;;;;;;29.00;47.81;100492.97;5026838;28;20075;-68
2023/07/11 08:31:49;;;;;;;5.65;4.72;;;;;;;29.06;49.91;100494.53;5027550;28;20044;-68
2023/07/11 08:34:15;;;;;;;8.77;4.72;;;;;;;29.22;48.63;100508.06;5030698;28;20472;-68
2023/07/11 08:36:41;;;;;;;9.38;4.97;;;;;;;29.39;50.22;100512.72;5033223;28;20047;-68
2023/07/11 08:39:07;;;;;;;8.30;5.03;;;;;;;29.43;47.52;100503.69;5010580;28;20141;-68
2023/07/11 08:41:43;;;;;;;10.85;5.47;;;;;;;29.54;48.16;100509.41;5020728;28;20033;-68
2023/07/11 08:44:16;;;;;;;9.10;5.47;;;;;;;29.61;47.92;100503.84;5023329;28;20031;-69
2023/07/11 08:46:48;;;;;;;13.93;5.32;;;;;;;29.72;47.36;100509.59;5019433;28;20021;-68
2023/07/11 08:49:23;;;;;;;7.45;5.78;;;;;;;29.81;48.44;100511.84;5019913;28;20033;-71
2023/07/11 08:51:52;;;;;;;12.00;5.35;;;;;;;29.69;46.65;100496.41;5029343;28;20453;-69
2023/07/11 08:54:17;;;;;;;8.90;5.25;;;;;;;29.81;47.27;100514.50;5031037;28;20026;-69
2023/07/11 08:56:47;;;;;;;6.90;5.10;;;;;;;29.81;45.91;100501.22;5033159;28;20041;-67
2023/07/11 08:59:29;;;;;;;5.72;4.97;;;;;;;29.90;44.48;100501.78;5033247;28;20049;-65
2023/07/11 09:02:10;;;;;;;8.18;4.93;;;;;;;30.05;47.39;100498.44;5033346;28;20518;-68
2023/07/11 09:04:48;;;;;;;8.07;4.97;;;;;;;30.03;46.12;100500.28;5032908;28;20053;-68
2023/07/11 09:07:41;;;;;;;9.95;5.75;;;;;;;30.11;44.73;100492.84;5033038;28;20091;-69
2023/07/11 09:10:28;;;;;;;8.45;5.38;;;;;;;30.18;47.44;100486.31;5033149;28;20048;-66
2023/07/11 09:13:03;;;;;;;11.98;5.22;;;;;;;30.36;46.29;100491.75;5032157;28;20026;-70
2023/07/11 09:15:59;;;;;;;8.48;5.40;;;;;;;30.46;43.57;100493.03;5032819;28;20041;-66
2023/07/11 09:18:41;;;;;;;8.20;5.28;;;;;;;30.58;44.09;100488.13;5044656;28;20055;-67
2023/07/11 09:21:15;;;;;;;14.02;5.10;;;;;;;30.60;44.41;100486.25;5052635;28;20037;-69
2023/07/11 09:23:50;;;;;;;17.08;6.22;;;;;;;30.71;44.66;100491.09;5052764;28;20430;-67
2023/07/11 09:26:27;;;;;;;15.45;4.88;;;;;;;30.81;44.32;100492.38;5052780;28;20040;-72
2023/07/11 09:29:03;;;;;;;8.95;5.07;;;;;;;30.89;43.93;100482.19;5051572;28;20032;-67
2023/07/11 09:31:39;;;;;;;18.90;6.28;;;;;;;30.91;47.48;100460.81;5052914;28;20112;-69
2023/07/11 09:34:20;;;;;;;13.98;5.07;;;;;;;30.94;45.09;100493.53;5052500;28;20043;-69
2023/07/11 09:36:48;;;;;;;9.93;5.40;;;;;;;30.96;46.72;100488.13;5052487;28;20029;-67
2023/07/11 09:39:29;;;;;;;12.32;5.38;;;;;;;31.02;45.16;100485.16;5052485;28;20035;-68
2023/07/11 09:42:06;;;;;;;7.53;4.90;;;;;;;31.01;44.08;100477.22;5052531;28;20032;-71
2023/07/11 09:44:33;;;;;;;17.95;6.32;;;;;;;30.98;46.53;100456.91;5050972;28;20021;-66
2023/07/11 09:47:15;;;;;;;9.63;5.47;;;;;;;31.28;43.10;100475.03;5051471;28;20025;-69
2023/07/11 09:49:42;;;;;;;9.15;5.43;;;;;;;31.31;42.58;100477.53;5052351;28;20036;-66
2023/07/11 09:52:13;;;;;;;12.38;7.13;;;;;;;31.30;44.71;100471.38;5052425;28;20064;-68
2023/07/11 09:54:46;;;;;;;9.52;5.13;;;;;;;31.27;45.51;100460.81;5052248;28;20033;-65
2023/07/11 09:57:12;;;;;;;23.33;5.63;;;;;;;31.61;41.22;100474.28;5052067;28;20041;-69
2023/07/11 09:59:42;;;;;;;10.88;5.10;;;;;;;31.72;46.06;100468.41;5052259;28;20094;-67
2023/07/11 10:02:15;;;;;;;7.20;4.75;;;;;;;31.75;41.45;100462.91;5038334;28;20041;-68
2023/07/11 10:04:42;;;;;;;8.63;5.03;;;;;;;31.87;42.53;100464.09;5032218;28;20498;-65
2023/07/11 10:07:14;;;;;;;10.27;4.97;;;;;;;32.01;43.60;100460.69;5029672;28;20034;-69
2023/07/11 10:09:50;;;;;;;8.88;5.38;;;;;;;31.98;41.10;100458.16;5030443;28;20037;-69
2023/07/11 10:12:20;;;;;;;13.27;5.47;;;;;;;31.78;41.69;100439.59;5030106;28;20033;-69
2023/07/11 10:14:52;;;;;;;7.90;5.03;;;;;;;31.96;41.38;100430.69;5030137;28;20040;-68
2023/07/11 10:17:21;;;;;;;7.55;4.80;;;;;;;32.28;43.55;100454.81;5042608;28;20043;-67
2023/07/11 10:20:16;;;;;;;7.33;5.00;;;;;;;32.32;41.49;100446.56;5005467;28;20149;-71
2023/07/11 10:22:44;;;;;;;9.27;5.18;;;;;;;32.37;40.26;100454.34;5007946;28;20666;-69
2023/07/11 10:25:22;;;;;;;7.60;5.40;;;;;;;32.43;42.22;100449.50;5008487;28;20057;-66
2023/07/11 10:28:27;;;;;;;7.35;4.80;;;;;;;32.35;40.01;100446.41;4999495;28;20464;-67
2023/07/11 10:30:53;;;;;;;6.07;4.70;;;;;;;32.44;43.61;100439.69;4969810;28;20042;-69
2023/07/11 10:33:28;;;;;;;10.20;5.65;;;;;;;32.41;41.77;100422.03;4969947;28;20498;-68
2023/07/11 10:36:03;;;;;;;10.85;5.40;;;;;;;32.62;40.87;100443.13;4969917;28;20421;-68
2023/07/11 10:38:46;;;;;;;8.93;5.40;;;;;;;32.81;42.43;100440.34;4969460;28;20113;-69
2023/07/11 10:41:20;;;;;;;8.07;5.80;;;;;;;32.53;40.13;100431.16;4969889;28;20069;-68
2023/07/11 10:43:49;;;;;;;6.28;5.15;;;;;;;32.61;41.07;100436.06;4969847;28;20023;-68
2023/07/11 10:46:31;;;;;;;7.68;5.50;;;;;;;32.82;41.48;100428.66;4953941;28;20047;-68
2023/07/11 10:49:01;;;;;;;10.48;5.20;;;;;;;33.04;42.96;100425.63;4969344;28;20051;-69
2023/07/11 10:51:39;;;;;;;7.93;5.53;;;;;;;33.30;39.80;100423.28;4981548;28;20034;-68
2023/07/11 10:54:36;;;;;;;9.20;5.65;;;;;;;33.15;39.26;100408.09;4972312;28;20509;-69
2023/07/11 10:57:11;;;;;;;9.65;5.63;;;;;;;33.43;42.52;100425.22;4930616;29;20574;-69
2023/07/11 10:59:36;;;;;;;7.47;5.10;;;;;;;33.32;41.27;100413.34;4930340;29;20055;-68
2023/07/11 11:02:10;;;;;;;6.88;5.28;;;;;;;33.58;43.89;100410.06;4930671;29;20058;-69
2023/07/11 11:04:53;;;;;;;7.57;5.07;;;;;;;33.82;42.05;100408.59;4930636;29;20475;-69
2023/07/11 11:07:30;;;;;;;8.57;5.10;;;;;;;33.79;38.21;100413.22;4938646;28;20105;-69
2023/07/11 11:10:06;;;;;;;7.70;5.05;;;;;;;33.78;37.95;100407.00;4968673;28;20050;-69
2023/07/11 11:12:40;;;;;;;7.53;5.28;;;;;;;33.92;38.30;100395.50;4968739;28;20023;-69
2023/07/11 11:15:30;;;;;;;6.28;5.05;;;;;;;33.92;38.08;100394.59;4968499;28;20097;-69
2023/07/11 11:18:31;;;;;;;9.85;4.93;;;;;;;34.04;41.58;100393.84;4968333;28;20033;-69
2023/07/11 11:21:37;;;;;;;9.65;5.38;;;;;;;34.23;38.33;100390.84;4949062;29;20064;-69
2023/07/11 11:24:17;;;;;;;8.15;5.35;;;;;;;34.04;39.07;100401.88;4940674;29;20031;-68
2023/07/11 11:26:51;;;;;;;10.73;5.70;;;;;;;33.79;36.79;100365.03;4948656;28;20039;-71